createdAt,value
2022-11-12T00:01:57.945Z,102717.66
2022-11-12T00:04:27.481Z,102707.88
2022-11-12T00:06:56.998Z,102710.38
2022-11-12T00:09:29.087Z,102706.88
2022-11-12T00:11:58.569Z,102702.25
2022-11-12T00:14:28.058Z,102693.38
2022-11-12T00:16:57.599Z,102691.72
2022-11-12T00:19:27.065Z,102704.31
2022-11-12T00:21:56.470Z,102699.31
2022-11-12T00:24:25.872Z,102698.94
2022-11-12T00:26:58.420Z,102690.44
2022-11-12T00:29:27.913Z,102689.97
2022-11-12T00:31:57.357Z,102688.16
2022-11-12T00:34:26.740Z,102692.28
2022-11-12T00:36:56.148Z,102683.03
2022-11-12T00:39:25.504Z,102689.06
2022-11-12T00:41:57.881Z,102682.50
2022-11-12T00:44:27.688Z,102680.44
2022-11-12T00:46:57.070Z,102683.78
2022-11-12T00:49:26.548Z,102683.25
2022-11-12T00:51:55.947Z,102683.25
2022-11-12T00:54:25.383Z,102679.00
2022-11-12T00:56:57.356Z,102686.72
2022-11-12T00:59:26.896Z,102692.00
2022-11-12T01:01:56.321Z,102690.44
2022-11-12T01:04:25.731Z,102693.81
2022-11-12T01:06:55.203Z,102704.88
2022-11-12T01:09:24.649Z,102707.03
2022-11-12T01:11:56.668Z,102704.59
2022-11-12T01:14:26.037Z,102712.97
2022-11-12T01:16:55.420Z,102714.63
2022-11-12T01:19:24.825Z,102714.41
2022-11-12T01:21:54.246Z,102710.66
2022-11-12T01:24:23.636Z,102728.25
2022-11-12T01:26:53.053Z,102728.78
2022-11-12T01:29:25.188Z,102735.47
2022-11-12T01:31:54.641Z,102735.34
2022-11-12T01:34:24.032Z,102738.28
2022-11-12T01:36:53.398Z,102746.00
2022-11-12T01:39:22.788Z,102740.84
2022-11-12T01:41:52.297Z,102741.41
2022-11-12T01:44:26.988Z,102750.00
2022-11-12T01:47:01.607Z,102738.56
2022-11-12T01:49:34.888Z,102747.34
2022-11-12T01:52:13.869Z,102751.22
2022-11-12T01:54:43.695Z,102751.34
2022-11-12T01:57:14.015Z,102762.28
2022-11-12T01:59:48.005Z,102757.13
2022-11-12T02:02:17.424Z,102766.88
2022-11-12T02:04:47.539Z,102771.50
2022-11-12T02:07:17.193Z,102762.22
2022-11-12T02:09:46.581Z,102765.47
2022-11-12T02:12:36.036Z,102761.88
2022-11-12T02:15:07.192Z,102757.63
2022-11-12T02:17:36.660Z,102756.59
2022-11-12T02:20:06.926Z,102753.28
2022-11-12T02:22:38.905Z,102760.22
2022-11-12T02:25:09.956Z,102751.00
2022-11-12T02:27:39.568Z,102751.38
2022-11-12T02:30:10.119Z,102754.19
2022-11-12T02:32:39.604Z,102753.03
2022-11-12T02:35:10.236Z,102761.53
2022-11-12T02:37:42.235Z,102750.72
2022-11-12T02:40:12.606Z,102753.16
2022-11-12T02:42:42.039Z,102760.50
2022-11-12T02:45:12.454Z,102756.66
2022-11-12T02:47:41.841Z,102756.41
2022-11-12T02:50:12.626Z,102763.47
2022-11-12T02:52:44.688Z,102756.16
2022-11-12T02:55:15.035Z,102752.81
2022-11-12T02:57:44.418Z,102758.84
2022-11-12T03:00:15.752Z,102757.69
2022-11-12T03:02:58.987Z,102745.59
2022-11-12T03:05:29.311Z,102751.38
2022-11-12T03:08:02.605Z,102745.34
2022-11-12T03:10:32.966Z,102754.34
2022-11-12T03:13:03.632Z,102743.81
2022-11-12T03:15:33.244Z,102744.56
2022-11-12T03:18:02.911Z,102767.31
2022-11-12T03:20:34.741Z,102775.41
2022-11-12T03:23:09.100Z,102771.53
2022-11-12T03:25:39.054Z,102762.22
2022-11-12T03:28:10.327Z,102752.19
2022-11-12T03:30:41.999Z,102753.31
2022-11-12T03:33:13.379Z,102761.03
2022-11-12T03:35:43.135Z,102756.13
2022-11-12T03:38:15.185Z,102744.16
2022-11-12T03:40:44.607Z,102754.16
2022-11-12T03:43:14.068Z,102744.38
2022-11-12T03:45:43.511Z,102744.47
2022-11-12T03:48:12.950Z,102745.88
2022-11-12T03:50:42.327Z,102747.75
2022-11-12T03:53:11.729Z,102752.50
2022-11-12T03:55:43.739Z,102752.19
2022-11-12T03:58:13.131Z,102757.84
2022-11-12T04:00:42.509Z,102747.19
2022-11-12T04:03:11.937Z,102734.44
2022-11-12T04:05:53.777Z,102752.78
2022-11-12T04:08:40.133Z,102748.13
2022-11-12T04:11:14.325Z,102739.78
2022-11-12T04:13:47.745Z,102738.16
2022-11-12T04:16:31.457Z,102741.84
2022-11-12T04:19:15.050Z,102741.41
2022-11-12T04:21:55.029Z,102739.91
2022-11-12T04:24:39.589Z,102730.91
2022-11-12T04:27:13.156Z,102737.59
2022-11-12T04:29:55.057Z,102737.66
2022-11-12T04:32:25.494Z,102726.91
2022-11-12T04:34:55.221Z,102733.25
2022-11-12T04:37:25.282Z,102728.53
2022-11-12T04:39:54.733Z,102733.25
2022-11-12T04:42:39.193Z,102737.13
2022-11-12T04:45:10.696Z,102727.78
2022-11-12T04:47:43.850Z,102735.13
2022-11-12T04:50:16.653Z,102727.75
2022-11-12T04:52:46.157Z,102738.16
2022-11-12T04:55:15.548Z,102754.03
2022-11-12T04:57:47.527Z,102756.09
2022-11-12T05:00:17.609Z,102746.47
2022-11-12T05:02:47.130Z,102741.94
2022-11-12T05:05:16.528Z,102741.28
2022-11-12T05:07:45.904Z,102746.34
2022-11-12T05:10:15.338Z,102732.31
2022-11-12T05:12:47.589Z,102742.16
2022-11-12T05:15:17.113Z,102738.75
2022-11-12T05:17:46.800Z,102748.13
2022-11-12T05:20:17.049Z,102750.69
2022-11-12T05:23:04.399Z,102748.00
2022-11-12T05:25:35.413Z,102754.66
2022-11-12T05:28:07.602Z,102760.53
2022-11-12T05:30:38.254Z,102751.78
2022-11-12T05:33:07.683Z,102741.47
2022-11-12T05:35:37.052Z,102745.44
2022-11-12T05:38:06.445Z,102752.34
2022-11-12T05:40:35.853Z,102752.09
2022-11-12T05:43:07.838Z,102754.09
2022-11-12T05:45:37.220Z,102747.72
2022-11-12T05:48:06.740Z,102735.28
2022-11-12T05:50:51.336Z,102737.66
2022-11-12T05:53:25.619Z,102762.59
2022-11-12T05:55:55.166Z,102756.28
2022-11-12T05:58:27.506Z,102744.75
2022-11-12T06:00:57.236Z,102752.72
2022-11-12T06:03:27.008Z,102761.53
2022-11-12T06:05:56.637Z,102749.22
2022-11-12T06:08:26.345Z,102754.63
2022-11-12T06:10:56.873Z,102756.19
2022-11-12T06:13:28.900Z,102746.59
2022-11-12T06:15:59.056Z,102753.53
2022-11-12T06:18:29.165Z,102758.91
2022-11-12T06:21:16.845Z,102764.44
2022-11-12T06:23:46.215Z,102778.84
2022-11-12T06:26:15.724Z,102775.13
2022-11-12T06:28:47.851Z,102776.53
2022-11-12T06:31:17.744Z,102786.34
2022-11-12T06:33:47.612Z,102771.31
2022-11-12T06:36:19.022Z,102771.22
2022-11-12T06:38:48.649Z,102765.31
2022-11-12T06:41:18.263Z,102766.69
2022-11-12T06:43:50.372Z,102796.31
2022-11-12T06:46:20.318Z,102795.63
2022-11-12T06:48:49.971Z,102788.28
2022-11-12T06:51:21.124Z,102796.03
2022-11-12T06:53:52.097Z,102791.69
2022-11-12T06:56:21.536Z,102789.84
2022-11-12T06:58:53.486Z,102801.53
2022-11-12T07:01:23.667Z,102798.16
2022-11-12T07:03:54.989Z,102807.13
2022-11-12T07:06:24.875Z,102806.50
2022-11-12T07:08:54.269Z,102808.19
2022-11-12T07:11:24.448Z,102811.84
2022-11-12T07:13:56.451Z,102810.75
2022-11-12T07:16:25.879Z,102810.78
2022-11-12T07:18:55.277Z,102810.50
2022-11-12T07:21:24.695Z,102810.53
2022-11-12T07:23:54.331Z,102823.47
2022-11-12T07:26:24.904Z,102831.16
2022-11-12T07:28:58.283Z,102828.28
2022-11-12T07:31:28.536Z,102832.50
2022-11-12T07:33:57.989Z,102829.63
2022-11-12T07:36:27.381Z,102825.13
2022-11-12T07:38:57.149Z,102823.16
2022-11-12T07:41:27.684Z,102828.53
2022-11-12T07:43:59.660Z,102822.78
2022-11-12T07:46:30.557Z,102818.28
2022-11-12T07:48:59.945Z,102803.88
2022-11-12T07:51:30.827Z,102794.72
2022-11-12T07:54:01.207Z,102814.50
2022-11-12T07:56:31.433Z,102808.97
2022-11-12T07:59:03.540Z,102798.31
2022-11-12T08:01:35.344Z,102799.34
2022-11-12T08:04:06.626Z,102802.09
2022-11-12T08:06:36.677Z,102813.84
2022-11-12T08:09:08.127Z,102815.25
2022-11-12T08:11:37.823Z,102823.84
2022-11-12T08:14:09.939Z,102826.72
2022-11-12T08:16:39.397Z,102840.94
2022-11-12T08:19:08.773Z,102838.69
2022-11-12T08:21:38.257Z,102854.84
2022-11-12T08:24:08.458Z,102867.34
2022-11-12T08:26:37.932Z,102864.38
2022-11-12T08:29:09.955Z,102863.75
2022-11-12T08:31:39.396Z,102872.50
2022-11-12T08:34:19.979Z,102878.50
2022-11-12T08:36:51.857Z,102873.81
2022-11-12T08:39:21.354Z,102875.00
2022-11-12T08:41:50.874Z,102882.34
2022-11-12T08:44:22.955Z,102897.53
2022-11-12T08:46:53.228Z,102895.06
2022-11-12T08:49:22.741Z,102892.31
2022-11-12T08:51:52.246Z,102901.31
2022-11-12T08:54:21.612Z,102915.63
2022-11-12T08:56:52.121Z,102916.16
2022-11-12T08:59:24.192Z,102918.03
2022-11-12T09:01:53.639Z,102919.38
2022-11-12T09:04:23.143Z,102929.16
2022-11-12T09:06:53.966Z,102928.53
2022-11-12T09:09:24.023Z,102942.97
2022-11-12T09:11:53.533Z,102946.91
2022-11-12T09:14:25.649Z,102946.56
2022-11-12T09:16:55.058Z,102948.66
2022-11-12T09:19:24.499Z,102950.41
2022-11-12T09:21:54.233Z,102953.91
2022-11-12T09:24:23.634Z,102965.59
2022-11-12T09:26:55.503Z,102970.94
2022-11-12T09:29:27.460Z,102964.56
2022-11-12T09:31:57.100Z,102957.69
2022-11-12T09:34:26.521Z,102956.91
2022-11-12T09:36:55.929Z,102964.19
2022-11-12T09:39:25.389Z,102972.44
2022-11-12T09:42:00.733Z,102972.06
2022-11-12T09:44:36.833Z,102974.00
2022-11-12T09:47:12.384Z,102971.22
2022-11-12T09:49:47.948Z,102976.47
2022-11-12T09:52:19.969Z,102977.69
2022-11-12T09:54:54.043Z,102977.69
2022-11-12T09:57:23.531Z,102975.38
2022-11-12T09:59:55.609Z,102979.53
2022-11-12T10:02:30.984Z,102981.19
2022-11-12T10:05:19.710Z,102980.78
2022-11-12T10:08:05.668Z,102994.69
2022-11-12T10:10:41.456Z,102990.06
2022-11-12T10:13:22.821Z,102994.44
2022-11-12T10:16:25.164Z,102994.81
2022-11-12T10:19:08.176Z,102992.09
2022-11-12T10:21:42.060Z,102996.88
2022-11-12T10:24:13.480Z,103007.13
2022-11-12T10:26:43.281Z,103007.47
2022-11-12T10:29:17.388Z,102999.22
2022-11-12T10:31:49.390Z,103006.06
2022-11-12T10:34:20.112Z,103014.44
2022-11-12T10:36:55.338Z,103023.28
2022-11-12T10:39:35.859Z,103037.03
2022-11-12T10:42:08.373Z,103021.31
2022-11-12T10:44:38.000Z,103019.63
2022-11-12T10:47:36.900Z,103026.06
2022-11-12T10:50:24.744Z,103027.13
2022-11-12T10:53:03.049Z,103033.41
2022-11-12T10:55:34.368Z,103027.38
2022-11-12T10:58:19.805Z,103015.34
2022-11-12T11:00:58.465Z,103019.88
2022-11-12T11:03:32.233Z,103021.44
2022-11-12T11:06:03.540Z,103006.63
2022-11-12T11:08:39.607Z,103004.06
2022-11-12T11:11:19.807Z,102992.56
2022-11-12T11:13:55.349Z,103001.94
2022-11-12T11:16:26.608Z,102999.81
2022-11-12T11:19:01.180Z,103005.44
2022-11-12T11:22:01.464Z,103013.06
2022-11-12T11:24:39.376Z,103009.78
2022-11-12T11:27:15.715Z,103008.16
2022-11-12T11:29:55.616Z,102995.84
2022-11-12T11:32:42.213Z,103003.19
2022-11-12T11:35:24.143Z,103016.09
2022-11-12T11:38:19.332Z,103015.19
2022-11-12T11:40:54.979Z,103018.81
2022-11-12T11:43:43.469Z,103008.91
2022-11-12T11:46:20.104Z,103014.41
2022-11-12T11:49:00.610Z,103015.00
2022-11-12T11:51:40.381Z,103014.97
2022-11-12T11:54:33.228Z,103015.31
2022-11-12T11:57:05.055Z,103019.25
2022-11-12T11:59:44.068Z,103018.94
2022-11-12T12:02:42.181Z,103015.63
2022-11-12T12:05:25.302Z,103009.34
2022-11-12T12:08:05.671Z,103012.69
2022-11-12T12:11:06.983Z,103016.44
2022-11-12T12:13:41.883Z,103012.81
2022-11-12T12:16:27.760Z,103023.03
2022-11-12T12:19:04.251Z,103017.19
2022-11-12T12:21:34.775Z,103016.75
2022-11-12T12:24:12.363Z,103019.69
2022-11-12T12:26:46.124Z,103023.94
2022-11-12T12:29:19.233Z,103017.34
2022-11-12T12:31:53.172Z,103018.56
2022-11-12T12:34:26.000Z,103006.78
2022-11-12T12:36:58.575Z,103007.34
2022-11-12T12:39:40.392Z,102997.75
2022-11-12T12:42:18.409Z,102998.34
2022-11-12T12:45:04.933Z,102989.84
2022-11-12T12:47:39.740Z,102992.44
2022-11-12T12:50:14.563Z,102990.13
2022-11-12T12:53:01.660Z,102993.75
2022-11-12T12:55:45.269Z,102995.16
2022-11-12T12:58:24.488Z,102982.53
2022-11-12T13:00:55.466Z,102973.97
2022-11-12T13:03:57.016Z,102975.50
2022-11-12T13:06:28.924Z,102977.13
2022-11-12T13:09:01.703Z,102980.69
2022-11-12T13:12:05.281Z,102972.56
2022-11-12T13:15:04.863Z,102970.97
2022-11-12T13:17:48.772Z,102963.50
2022-11-12T13:20:42.785Z,102957.47
2022-11-12T13:23:14.703Z,102958.41
2022-11-12T13:25:44.097Z,102960.31
2022-11-12T13:28:16.773Z,102954.16
2022-11-12T13:31:01.432Z,102951.69
2022-11-12T13:33:34.559Z,102942.13
2022-11-12T13:36:30.936Z,102944.16
2022-11-12T13:39:15.323Z,102939.41
2022-11-12T13:41:57.243Z,102930.47
2022-11-12T13:44:30.677Z,102925.84
2022-11-12T13:47:00.249Z,102936.31
2022-11-12T13:49:29.932Z,102928.44
2022-11-12T13:52:00.806Z,102924.16
2022-11-12T13:54:35.926Z,102935.41
2022-11-12T13:57:27.105Z,102925.50
2022-11-12T14:00:27.348Z,102916.53
2022-11-12T14:02:59.289Z,102919.88
2022-11-12T14:05:30.772Z,102914.25
2022-11-12T14:08:25.880Z,102912.47
2022-11-12T14:11:06.314Z,102921.22
2022-11-12T14:13:47.640Z,102918.31
2022-11-12T14:16:34.339Z,102907.31
2022-11-12T14:19:20.865Z,102908.97
2022-11-12T14:22:12.228Z,102907.50
2022-11-12T14:24:42.243Z,102909.41
2022-11-12T14:27:36.404Z,102906.16
2022-11-12T14:30:17.330Z,102911.66
2022-11-12T14:32:51.189Z,102918.53
2022-11-12T14:35:30.648Z,102916.94
2022-11-12T14:38:02.707Z,102916.97
2022-11-12T14:40:33.875Z,102918.88
2022-11-12T14:43:03.353Z,102915.63
2022-11-12T14:45:35.414Z,102915.53
2022-11-12T14:48:11.455Z,102917.28
2022-11-12T14:50:45.335Z,102909.34
2022-11-12T14:53:24.486Z,102916.81
2022-11-12T14:55:56.128Z,102923.75
2022-11-12T14:58:27.942Z,102913.00
2022-11-12T15:00:58.689Z,102914.09
2022-11-12T15:03:35.785Z,102925.66
2022-11-12T15:06:12.168Z,102919.44
2022-11-12T15:08:42.801Z,102918.41
2022-11-12T15:11:33.772Z,102917.19
2022-11-12T15:14:05.223Z,102916.09
2022-11-12T15:16:36.359Z,102907.97
2022-11-12T15:19:21.152Z,102900.22
2022-11-12T15:21:52.433Z,102887.44
2022-11-12T15:24:29.544Z,102892.66
2022-11-12T15:27:00.515Z,102896.47
2022-11-12T15:29:33.174Z,102886.78
2022-11-12T15:32:08.605Z,102889.69
2022-11-12T15:34:50.761Z,102894.31
2022-11-12T15:37:27.189Z,102886.09
2022-11-12T15:39:58.500Z,102886.44
2022-11-12T15:42:30.111Z,102874.06
2022-11-12T15:45:01.962Z,102877.00
2022-11-12T15:47:31.838Z,102876.78
2022-11-12T15:50:03.859Z,102878.56
2022-11-12T15:52:33.249Z,102877.25
2022-11-12T15:55:03.164Z,102878.09
2022-11-12T15:57:34.763Z,102870.09
2022-11-12T16:00:08.420Z,102875.97
2022-11-12T16:02:38.456Z,102866.47
2022-11-12T16:05:14.843Z,102873.53
2022-11-12T16:07:44.300Z,102873.03
2022-11-12T16:10:16.207Z,102871.66
2022-11-12T16:12:47.367Z,102876.47
2022-11-12T16:15:18.318Z,102883.50
2022-11-12T16:17:48.003Z,102887.16
2022-11-12T16:20:22.645Z,102888.19
2022-11-12T16:22:52.562Z,102881.47
2022-11-12T16:25:22.425Z,102886.28
2022-11-12T16:27:55.907Z,102884.72
2022-11-12T16:30:28.043Z,102887.03
2022-11-12T16:32:59.141Z,102883.72
2022-11-12T16:35:31.735Z,102892.00
2022-11-12T16:38:01.187Z,102884.28
2022-11-12T16:40:32.743Z,102886.59
2022-11-12T16:43:02.148Z,102884.66
2022-11-12T16:45:36.836Z,102884.91
2022-11-12T16:48:14.038Z,102893.78
2022-11-12T16:50:46.105Z,102893.78
2022-11-12T16:53:15.587Z,102893.53
2022-11-12T16:55:45.253Z,102910.13
2022-11-12T16:58:16.507Z,102907.94
2022-11-12T17:00:50.031Z,102906.53
2022-11-12T17:03:19.581Z,102906.91
2022-11-12T17:05:56.023Z,102898.03
2022-11-12T17:08:33.736Z,102902.75
2022-11-12T17:11:09.723Z,102901.47
2022-11-12T17:13:40.127Z,102896.06
2022-11-12T17:16:10.299Z,102881.66
2022-11-12T17:18:40.252Z,102880.38
2022-11-12T17:21:15.323Z,102873.78
2022-11-12T17:23:45.206Z,102868.75
2022-11-12T17:26:16.096Z,102864.13
2022-11-12T17:28:45.612Z,102854.72
2022-11-12T17:31:16.428Z,102857.38
2022-11-12T17:33:47.315Z,102854.03
2022-11-12T17:36:21.180Z,102850.34
2022-11-12T17:38:51.128Z,102845.06
2022-11-12T17:41:20.592Z,102840.19
2022-11-12T17:43:50.088Z,102835.81
2022-11-12T17:46:19.483Z,102832.72
2022-11-12T17:48:48.909Z,102831.94
2022-11-12T17:51:22.625Z,102820.13
2022-11-12T17:53:53.117Z,102825.28
2022-11-12T17:56:24.635Z,102817.28
2022-11-12T17:58:54.766Z,102824.22
2022-11-12T18:01:26.614Z,102822.69
2022-11-12T18:03:59.101Z,102817.28
2022-11-12T18:06:33.011Z,102816.47
2022-11-12T18:09:04.576Z,102819.84
2022-11-12T18:11:44.663Z,102815.63
2022-11-12T18:14:14.285Z,102812.88
2022-11-12T18:16:44.126Z,102817.75
2022-11-12T18:19:13.644Z,102817.38
2022-11-12T18:21:45.891Z,102817.28
2022-11-12T18:24:16.690Z,102814.69
2022-11-12T18:26:47.271Z,102808.47
2022-11-12T18:29:16.720Z,102801.47
2022-11-12T18:31:47.321Z,102797.03
2022-11-12T18:34:17.542Z,102786.94
2022-11-12T18:36:49.552Z,102788.56
2022-11-12T18:39:19.034Z,102779.19
2022-11-12T18:41:48.441Z,102780.13
2022-11-12T18:44:21.971Z,102770.22
2022-11-12T18:46:54.347Z,102768.56
2022-11-12T18:49:23.841Z,102771.81
2022-11-12T18:51:55.924Z,102767.66
2022-11-12T18:54:26.357Z,102759.03
2022-11-12T18:56:55.717Z,102762.03
2022-11-12T18:59:30.519Z,102753.56
2022-11-12T19:02:00.349Z,102752.50
2022-11-12T19:04:30.211Z,102752.97
2022-11-12T19:07:02.301Z,102738.34
2022-11-12T19:09:31.988Z,102733.06
2022-11-12T19:12:01.452Z,102733.22
2022-11-12T19:14:30.936Z,102731.28
2022-11-12T19:17:00.419Z,102729.63
2022-11-12T19:19:29.838Z,102730.41
2022-11-12T19:22:01.888Z,102727.91
2022-11-12T19:24:31.561Z,102727.72
2022-11-12T19:27:01.032Z,102721.66
2022-11-12T19:29:31.959Z,102713.34
2022-11-12T19:32:01.401Z,102707.66
2022-11-12T19:34:30.904Z,102703.94
2022-11-12T19:37:31.650Z,102704.91
2022-11-12T19:39:52.421Z,102700.81
2022-11-12T19:42:21.840Z,102694.66
2022-11-12T19:44:52.492Z,102689.75
2022-11-12T19:47:22.015Z,102676.63
2022-11-12T19:49:51.489Z,102673.91
2022-11-12T19:52:23.483Z,102660.47
2022-11-12T19:54:52.992Z,102659.66
2022-11-12T19:57:22.951Z,102654.69
2022-11-12T19:59:52.396Z,102643.16
2022-11-12T20:02:21.800Z,102644.22
2022-11-12T20:04:51.280Z,102646.16
2022-11-12T20:07:23.513Z,102648.28
2022-11-12T20:09:56.580Z,102643.38
2022-11-12T20:12:30.257Z,102634.81
2022-11-12T20:14:59.743Z,102623.28
2022-11-12T20:17:29.162Z,102637.16
2022-11-12T20:19:58.576Z,102631.63
2022-11-12T20:22:32.767Z,102634.91
2022-11-12T20:25:02.308Z,102632.94
2022-11-12T20:27:31.804Z,102628.78
2022-11-12T20:30:01.290Z,102633.91
2022-11-12T20:32:31.006Z,102632.91
2022-11-12T20:35:00.392Z,102629.72
2022-11-12T20:37:32.633Z,102623.41
2022-11-12T20:40:02.053Z,102631.38
2022-11-12T20:42:31.503Z,102631.38
2022-11-12T20:45:01.012Z,102632.19
2022-11-12T20:47:30.512Z,102632.53
2022-11-12T20:50:00.017Z,102632.75
2022-11-12T20:52:32.119Z,102630.91
2022-11-12T20:55:01.580Z,102631.13
2022-11-12T20:57:30.969Z,102630.50
2022-11-12T21:00:00.405Z,102618.31
2022-11-12T21:02:29.891Z,102622.66
2022-11-12T21:04:59.267Z,102624.75
2022-11-12T21:07:28.964Z,102623.72
2022-11-12T21:10:01.081Z,102621.78
2022-11-12T21:12:30.630Z,102616.72
2022-11-12T21:15:00.102Z,102621.84
2022-11-12T21:17:29.636Z,102620.31
2022-11-12T21:19:59.681Z,102615.81
2022-11-12T21:22:29.104Z,102608.56
2022-11-12T21:25:01.108Z,102613.41
2022-11-12T21:27:30.594Z,102614.41
2022-11-12T21:30:00.101Z,102607.03
2022-11-12T21:32:29.836Z,102603.50
2022-11-12T21:34:59.328Z,102604.88
2022-11-12T21:37:28.802Z,102596.34
2022-11-12T21:40:00.907Z,102604.50
2022-11-12T21:42:30.968Z,102603.88
2022-11-12T21:45:00.385Z,102618.50
2022-11-12T21:47:29.822Z,102612.13
2022-11-12T21:49:59.342Z,102602.78
2022-11-12T21:52:28.834Z,102609.28
2022-11-12T21:55:00.903Z,102614.25
2022-11-12T21:57:30.412Z,102618.34
2022-11-12T22:00:19.545Z,102623.59
2022-11-12T22:02:49.340Z,102630.22
2022-11-12T22:05:19.132Z,102626.91
2022-11-12T22:07:48.588Z,102627.06
2022-11-12T22:10:20.872Z,102630.09
2022-11-12T22:13:19.861Z,102632.78
2022-11-12T22:15:39.888Z,102624.41
2022-11-12T22:18:09.451Z,102622.56
2022-11-12T22:20:39.123Z,102615.66
2022-11-12T22:23:08.552Z,102605.72
2022-11-12T22:25:40.580Z,102608.03
2022-11-12T22:28:09.958Z,102612.31
2022-11-12T22:30:39.428Z,102616.91
2022-11-12T22:33:08.836Z,102621.72
2022-11-12T22:35:38.328Z,102630.97
2022-11-12T22:38:07.777Z,102642.06
2022-11-12T22:40:39.912Z,102658.69
2022-11-12T22:43:09.344Z,102652.53
2022-11-12T22:45:38.835Z,102665.03
2022-11-12T22:48:08.998Z,102660.06
2022-11-12T22:50:38.508Z,102666.25
2022-11-12T22:53:07.937Z,102678.44
2022-11-12T22:55:39.943Z,102687.84
2022-11-12T22:58:09.419Z,102680.34
2022-11-12T23:00:38.858Z,102683.78
2022-11-12T23:03:08.340Z,102685.47
2022-11-12T23:05:38.272Z,102679.47
2022-11-12T23:08:08.497Z,102682.97
2022-11-12T23:10:45.650Z,102681.81
2022-11-12T23:13:15.741Z,102682.28
2022-11-12T23:15:45.426Z,102677.03
2022-11-12T23:18:15.061Z,102679.88
2022-11-12T23:20:44.602Z,102674.16
2022-11-12T23:23:14.409Z,102669.53
2022-11-12T23:25:46.796Z,102673.00
2022-11-12T23:28:16.228Z,102665.81
2022-11-12T23:30:50.935Z,102667.44
2022-11-12T23:33:20.413Z,102659.44
2022-11-12T23:35:49.826Z,102657.22
2022-11-12T23:38:19.328Z,102645.47
2022-11-12T23:40:58.532Z,102644.13
2022-11-12T23:43:28.336Z,102637.53
2022-11-12T23:45:57.880Z,102635.00
2022-11-12T23:48:27.678Z,102628.50
2022-11-12T23:51:04.359Z,102626.94
2022-11-12T23:53:35.008Z,102632.03
2022-11-12T23:56:09.322Z,102626.16
2022-11-12T23:58:38.989Z,102626.69
